createdAt,value
2017-05-05T00:00:32.180Z,89.84
2017-05-05T00:01:12.765Z,90.03
2017-05-05T00:01:53.376Z,89.94
2017-05-05T00:02:34.055Z,90.6
2017-05-05T00:03:14.625Z,90.7
2017-05-05T00:03:55.206Z,90.22
2017-05-05T00:04:35.827Z,89.94
2017-05-05T00:05:16.426Z,90.31
2017-05-05T00:05:57.075Z,90.12
2017-05-05T00:06:37.639Z,89.94
2017-05-05T00:07:18.281Z,89.94
2017-05-05T00:07:58.870Z,90.7
2017-05-05T00:08:39.459Z,90.6
2017-05-05T00:09:20.112Z,90.6
2017-05-05T00:10:00.653Z,90.7
2017-05-05T00:10:41.283Z,89.94
2017-05-05T00:11:21.910Z,90.31
2017-05-05T00:12:02.474Z,90.41
2017-05-05T00:12:43.038Z,90.41
2017-05-05T00:13:23.607Z,90.6
2017-05-05T00:14:04.191Z,90.7
2017-05-05T00:14:44.747Z,90.6
2017-05-05T00:15:25.332Z,90.31
2017-05-05T00:16:05.943Z,90.6
2017-05-05T00:16:46.525Z,90.6
2017-05-05T00:17:27.126Z,90.7
2017-05-05T00:18:07.708Z,90.03
2017-05-05T00:18:48.288Z,90.03
2017-05-05T00:19:28.897Z,90.41
2017-05-05T00:20:09.540Z,90.03
2017-05-05T00:20:50.112Z,89.94
2017-05-05T00:21:30.699Z,90.03
2017-05-05T00:22:11.366Z,90.6
2017-05-05T00:22:51.945Z,90.03
2017-05-05T00:23:32.525Z,90.22
2017-05-05T00:24:13.142Z,90.12
2017-05-05T00:24:53.717Z,90.22
2017-05-05T00:25:34.318Z,90.12
2017-05-05T00:26:14.895Z,90.22
2017-05-05T00:26:55.485Z,90.22
2017-05-05T00:27:36.056Z,90.41
2017-05-05T00:28:16.617Z,90.22
2017-05-05T00:28:57.192Z,90.31
2017-05-05T00:29:37.758Z,90.12
2017-05-05T00:30:18.342Z,90.22
2017-05-05T00:30:58.948Z,90.22
2017-05-05T00:31:39.524Z,90.12
2017-05-05T00:32:20.100Z,90.03
2017-05-05T00:33:00.806Z,90.12
2017-05-05T00:33:41.448Z,89.79
2017-05-05T00:34:22.070Z,90.03
2017-05-05T00:35:02.656Z,90.03
2017-05-05T00:35:43.276Z,90.08
2017-05-05T00:36:23.849Z,89.79
2017-05-05T00:37:04.447Z,90.36
2017-05-05T00:37:45.019Z,90.46
2017-05-05T00:38:25.648Z,90.41
2017-05-05T00:39:06.257Z,90.31
2017-05-05T00:39:46.848Z,89.98
2017-05-05T00:40:27.543Z,89.89
2017-05-05T00:41:08.125Z,89.51
2017-05-05T00:41:48.742Z,89.79
2017-05-05T00:42:29.325Z,89.79
2017-05-05T00:43:09.924Z,89.51
2017-05-05T00:43:50.492Z,89.51
2017-05-05T00:44:31.096Z,89.32
2017-05-05T00:45:11.687Z,89.51
2017-05-05T00:45:52.290Z,89.22
2017-05-05T00:46:32.879Z,89.79
2017-05-05T00:47:13.464Z,89.98
2017-05-05T00:47:54.068Z,89.89
2017-05-05T00:48:34.622Z,90.08
2017-05-05T00:49:15.197Z,90.31
2017-05-05T00:49:55.771Z,90.17
2017-05-05T00:50:36.357Z,90.36
2017-05-05T00:51:16.954Z,90.36
2017-05-05T00:52:00.221Z,89.98
2017-05-05T00:52:40.790Z,90.17
2017-05-05T00:53:21.354Z,90.17
2017-05-05T00:54:01.959Z,90.17
2017-05-05T00:54:42.535Z,90.17
2017-05-05T00:55:23.111Z,90.08
2017-05-05T00:56:03.689Z,90.27
2017-05-05T00:56:44.277Z,90.27
2017-05-05T00:57:24.866Z,90.27
2017-05-05T00:58:05.440Z,90.17
2017-05-05T00:58:46.044Z,90.17
2017-05-05T00:59:26.612Z,89.89
2017-05-05T01:00:07.207Z,89.89
2017-05-05T01:00:47.815Z,89.61
2017-05-05T01:01:28.374Z,89.79
2017-05-05T01:02:08.954Z,89.22
2017-05-05T01:02:49.525Z,89.65
2017-05-05T01:03:30.098Z,89.51
2017-05-05T01:04:10.680Z,89.41
2017-05-05T01:04:51.233Z,89.79
2017-05-05T01:05:31.842Z,89.84
2017-05-05T01:06:12.433Z,89.32
2017-05-05T01:06:53.037Z,89.51
2017-05-05T01:07:33.672Z,89.65
2017-05-05T01:08:14.267Z,89.84
2017-05-05T01:08:54.859Z,89.75
2017-05-05T01:09:35.435Z,89.84
2017-05-05T01:10:16.021Z,89.26
2017-05-05T01:10:56.610Z,89.55
2017-05-05T01:11:37.199Z,89.55
2017-05-05T01:12:17.773Z,89.65
2017-05-05T01:12:58.350Z,89.46
2017-05-05T01:13:38.927Z,89.55
2017-05-05T01:14:19.508Z,89.65
2017-05-05T01:15:00.080Z,89.55
2017-05-05T01:15:40.664Z,89.55
2017-05-05T01:16:21.264Z,89.55
2017-05-05T01:17:01.859Z,89.65
2017-05-05T01:17:42.440Z,89.17
2017-05-05T01:18:23.047Z,89.17
2017-05-05T01:19:03.625Z,89.17
2017-05-05T01:19:44.213Z,89.36
2017-05-05T01:20:24.788Z,88.7
2017-05-05T01:21:05.371Z,88.75
2017-05-05T01:21:45.952Z,88.51
2017-05-05T01:22:26.532Z,89.13
2017-05-05T01:23:07.114Z,89.13
2017-05-05T01:23:47.688Z,88.84
2017-05-05T01:24:28.271Z,88.98
2017-05-05T01:25:08.837Z,88.56
2017-05-05T01:25:49.429Z,88.89
2017-05-05T01:26:30.003Z,89.13
2017-05-05T01:27:10.557Z,89.32
2017-05-05T01:27:51.155Z,89.32
2017-05-05T01:28:31.736Z,89.03
2017-05-05T01:29:12.301Z,89.22
2017-05-05T01:29:52.888Z,89.32
2017-05-05T01:30:33.463Z,89.41
2017-05-05T01:31:14.059Z,89.41
2017-05-05T01:31:54.633Z,88.84
2017-05-05T01:32:35.207Z,88.84
2017-05-05T01:33:15.786Z,88.84
2017-05-05T01:33:56.358Z,88.93
2017-05-05T01:34:36.941Z,88.84
2017-05-05T01:35:17.518Z,89.41
2017-05-05T01:35:58.128Z,89.51
2017-05-05T01:36:38.699Z,89.7
2017-05-05T01:37:19.274Z,89.61
2017-05-05T01:37:59.866Z,89.32
2017-05-05T01:38:40.434Z,89.51
2017-05-05T01:39:21.016Z,89.61
2017-05-05T01:40:01.621Z,89.51
2017-05-05T01:40:42.195Z,89.41
2017-05-05T01:41:22.803Z,89.41
2017-05-05T01:42:03.384Z,89.7
2017-05-05T01:42:43.980Z,90.27
2017-05-05T01:43:24.576Z,90.17
2017-05-05T01:44:05.170Z,89.61
2017-05-05T01:44:45.740Z,89.98
2017-05-05T01:45:26.336Z,89.98
2017-05-05T01:46:06.951Z,90.36
2017-05-05T01:46:47.567Z,90.08
2017-05-05T01:47:28.162Z,90.17
2017-05-05T01:48:08.754Z,90.08
2017-05-05T01:48:49.331Z,90.08
2017-05-05T01:49:29.941Z,90.08
2017-05-05T01:50:10.519Z,90.08
2017-05-05T01:50:51.118Z,90.08
2017-05-05T01:51:31.713Z,89.7
2017-05-05T01:52:12.327Z,89.98
2017-05-05T01:52:52.912Z,89.61
2017-05-05T01:53:33.506Z,89.98
2017-05-05T01:54:14.141Z,89.41
2017-05-05T01:54:54.719Z,89.32
2017-05-05T01:55:35.331Z,90.08
2017-05-05T01:56:15.919Z,89.79
2017-05-05T01:56:56.536Z,89.7
2017-05-05T01:57:37.117Z,89.98
2017-05-05T01:58:17.727Z,89.7
2017-05-05T01:58:58.362Z,89.98
2017-05-05T01:59:38.952Z,89.89
2017-05-05T02:00:19.522Z,90.17
2017-05-05T02:01:00.121Z,89.98
2017-05-05T02:01:40.753Z,89.89
2017-05-05T02:02:21.322Z,90.36
2017-05-05T02:03:01.947Z,90.17
2017-05-05T02:03:42.542Z,89.89
2017-05-05T02:04:23.147Z,89.89
2017-05-05T02:05:03.753Z,90.08
2017-05-05T02:05:44.348Z,90.17
2017-05-05T02:06:24.925Z,90.17
2017-05-05T02:07:05.513Z,89.89
2017-05-05T02:07:46.076Z,89.98
2017-05-05T02:08:26.652Z,89.98
2017-05-05T02:09:07.231Z,90.46
2017-05-05T02:09:47.818Z,89.98
2017-05-05T02:10:28.440Z,90.65
2017-05-05T02:11:09.063Z,90.36
2017-05-05T02:11:49.642Z,90.65
2017-05-05T02:12:30.201Z,90.46
2017-05-05T02:13:10.774Z,90.65
2017-05-05T02:13:51.354Z,89.98
2017-05-05T02:14:31.986Z,90.56
2017-05-05T02:15:12.569Z,89.79
2017-05-05T02:15:53.170Z,90.56
2017-05-05T02:16:33.832Z,90.36
2017-05-05T02:17:14.399Z,90.65
2017-05-05T02:17:55.056Z,90.27
2017-05-05T02:18:35.736Z,90.46
2017-05-05T02:19:16.356Z,90.36
2017-05-05T02:19:56.949Z,90.46
2017-05-05T02:20:37.552Z,90.46
2017-05-05T02:21:18.147Z,90.56
2017-05-05T02:21:58.785Z,90.65
2017-05-05T02:22:39.410Z,90.17
2017-05-05T02:23:19.988Z,89.98
2017-05-05T02:24:00.575Z,89.89
2017-05-05T02:24:41.145Z,90.75
2017-05-05T02:25:21.728Z,90.65
2017-05-05T02:26:02.299Z,90.65
2017-05-05T02:26:42.891Z,90.36
2017-05-05T02:27:23.525Z,90.27
2017-05-05T02:28:04.089Z,89.98
2017-05-05T02:28:44.665Z,90.36
2017-05-05T02:29:25.303Z,89.98
2017-05-05T02:30:05.871Z,89.98
2017-05-05T02:30:46.456Z,89.79
2017-05-05T02:31:27.032Z,90.17
2017-05-05T02:32:07.599Z,90.17
2017-05-05T02:32:48.237Z,90.17
2017-05-05T02:33:28.813Z,90.08
2017-05-05T02:34:09.437Z,90.08
2017-05-05T02:34:50.011Z,90.08
2017-05-05T02:35:30.629Z,90.17
2017-05-05T02:36:11.276Z,90.17
2017-05-05T02:36:51.840Z,90.17
2017-05-05T02:37:32.476Z,90.08
2017-05-05T02:38:13.090Z,89.79
2017-05-05T02:38:53.699Z,90.17
2017-05-05T02:39:34.338Z,89.89
2017-05-05T02:40:14.922Z,89.79
2017-05-05T02:40:55.538Z,89.89
2017-05-05T02:41:36.121Z,90.08
2017-05-05T02:42:16.688Z,90.17
2017-05-05T02:42:57.307Z,89.89
2017-05-05T02:43:37.881Z,90.08
2017-05-05T02:44:18.463Z,90.17
2017-05-05T02:44:59.058Z,90.36
2017-05-05T02:45:39.681Z,90.17
2017-05-05T02:46:20.265Z,90.36
2017-05-05T02:47:00.847Z,89.98
2017-05-05T02:47:41.460Z,89.61
2017-05-05T02:48:22.002Z,89.7
2017-05-05T02:49:02.571Z,89.98
2017-05-05T02:49:43.172Z,89.89
2017-05-05T02:50:23.781Z,89.7
2017-05-05T02:51:04.366Z,89.89
2017-05-05T02:51:44.974Z,89.7
2017-05-05T02:52:25.587Z,90.46
2017-05-05T02:53:06.191Z,90.08
2017-05-05T02:53:46.793Z,90.27
2017-05-05T02:54:27.365Z,90.17
2017-05-05T02:55:07.935Z,90.08
2017-05-05T02:55:48.524Z,90.17
2017-05-05T02:56:29.167Z,89.79
2017-05-05T02:57:09.751Z,89.79
2017-05-05T02:57:50.453Z,89.98
2017-05-05T02:58:31.061Z,90.08
2017-05-05T02:59:11.659Z,90.36
2017-05-05T02:59:52.348Z,90.36
2017-05-05T03:00:32.950Z,90.08
2017-05-05T03:01:13.533Z,89.89
2017-05-05T03:01:54.123Z,89.41
2017-05-05T03:02:34.718Z,89.98
2017-05-05T03:03:15.351Z,89.84
2017-05-05T03:03:55.940Z,89.61
2017-05-05T03:04:36.516Z,89.89
2017-05-05T03:05:17.104Z,89.98
2017-05-05T03:05:57.683Z,90.17
2017-05-05T03:06:38.307Z,89.79
2017-05-05T03:07:18.890Z,89.89
2017-05-05T03:07:59.487Z,89.7
2017-05-05T03:08:40.081Z,89.41
2017-05-05T03:09:20.705Z,89.79
2017-05-05T03:10:01.276Z,89.22
2017-05-05T03:10:41.912Z,89.7
2017-05-05T03:11:22.511Z,89.32
2017-05-05T03:12:03.130Z,89.41
2017-05-05T03:12:43.734Z,89.7
2017-05-05T03:13:24.338Z,89.89
2017-05-05T03:14:04.928Z,89.89
2017-05-05T03:14:45.594Z,89.79
2017-05-05T03:15:26.171Z,89.61
2017-05-05T03:16:06.782Z,89.98
2017-05-05T03:16:47.417Z,90.27
2017-05-05T03:17:28.076Z,90.17
2017-05-05T03:18:08.647Z,90.08
2017-05-05T03:18:49.251Z,90.41
2017-05-05T03:19:29.833Z,90.12
2017-05-05T03:20:10.449Z,89.79
2017-05-05T03:20:51.109Z,90.27
2017-05-05T03:21:31.687Z,90.27
2017-05-05T03:22:12.265Z,89.98
2017-05-05T03:22:52.895Z,90.08
2017-05-05T03:23:33.460Z,90.36
2017-05-05T03:24:14.057Z,90.27
2017-05-05T03:24:54.622Z,90.17
2017-05-05T03:25:35.217Z,90.17
2017-05-05T03:26:15.799Z,90.36
2017-05-05T03:26:56.372Z,90.41
2017-05-05T03:27:36.962Z,90.27
2017-05-05T03:28:17.591Z,90.08
2017-05-05T03:28:58.178Z,90.17
2017-05-05T03:29:38.790Z,90.17
2017-05-05T03:30:19.393Z,90.17
2017-05-05T03:31:00.071Z,90.17
2017-05-05T03:31:40.701Z,89.98
2017-05-05T03:32:21.307Z,90.17
2017-05-05T03:33:01.891Z,90.17
2017-05-05T03:33:42.449Z,90.36
2017-05-05T03:34:23.051Z,89.89
2017-05-05T03:35:03.646Z,90.08
2017-05-05T03:35:44.252Z,90.17
2017-05-05T03:36:24.857Z,90.17
2017-05-05T03:37:05.480Z,89.98
2017-05-05T03:37:46.121Z,89.89
2017-05-05T03:38:26.706Z,89.98
2017-05-05T03:39:07.298Z,89.98
2017-05-05T03:39:47.915Z,89.79
2017-05-05T03:40:28.527Z,90.08
2017-05-05T03:41:09.115Z,90.17
2017-05-05T03:41:49.723Z,89.79
2017-05-05T03:42:30.324Z,89.98
2017-05-05T03:43:10.913Z,89.98
2017-05-05T03:43:51.511Z,90.65
2017-05-05T03:44:32.119Z,90.17
2017-05-05T03:45:12.685Z,90.65
2017-05-05T03:45:53.274Z,89.98
2017-05-05T03:46:33.891Z,90.08
2017-05-05T03:47:14.481Z,89.79
2017-05-05T03:47:55.038Z,89.98
2017-05-05T03:48:35.607Z,89.98
2017-05-05T03:49:16.192Z,90.08
2017-05-05T03:49:56.788Z,90.08
2017-05-05T03:50:37.440Z,90.12
2017-05-05T03:51:18.017Z,90.12
2017-05-05T03:51:58.591Z,90.17
2017-05-05T03:52:39.196Z,89.89
2017-05-05T03:53:19.773Z,90.31
2017-05-05T03:54:00.366Z,90.03
2017-05-05T03:54:40.959Z,90.12
2017-05-05T03:55:21.591Z,90.22
2017-05-05T03:56:02.166Z,90.03
2017-05-05T03:56:42.746Z,89.79
2017-05-05T03:57:23.357Z,90.22
2017-05-05T03:58:03.987Z,90.31
2017-05-05T03:58:44.562Z,90.5
2017-05-05T03:59:25.143Z,90.22
2017-05-05T04:00:05.730Z,90.22
2017-05-05T04:00:46.325Z,90.22
2017-05-05T04:01:26.933Z,89.84
2017-05-05T04:02:07.522Z,90.03
2017-05-05T04:02:48.104Z,90.03
2017-05-05T04:03:28.703Z,90.22
2017-05-05T04:04:09.286Z,90.22
2017-05-05T04:04:49.895Z,89.84
2017-05-05T04:05:30.555Z,89.75
2017-05-05T04:06:11.143Z,89.65
2017-05-05T04:06:51.750Z,89.65
2017-05-05T04:07:32.340Z,89.36
2017-05-05T04:08:12.931Z,89.94
2017-05-05T04:08:53.515Z,89.84
2017-05-05T04:09:34.148Z,89.94
2017-05-05T04:10:14.731Z,89.7
2017-05-05T04:10:55.298Z,90.12
2017-05-05T04:11:35.892Z,89.94
2017-05-05T04:12:16.473Z,89.94
2017-05-05T04:12:57.106Z,90.03
2017-05-05T04:13:37.753Z,90.41
2017-05-05T04:14:18.364Z,90.08
2017-05-05T04:14:58.935Z,90.22
2017-05-05T04:15:39.695Z,90.22
2017-05-05T04:16:20.451Z,90.22
2017-05-05T04:17:01.011Z,90.12
2017-05-05T04:17:41.610Z,90.22
2017-05-05T04:18:22.218Z,90.22
2017-05-05T04:19:02.803Z,90.41
2017-05-05T04:19:43.391Z,90.22
2017-05-05T04:20:23.977Z,90.12
2017-05-05T04:21:04.561Z,89.84
2017-05-05T04:21:45.126Z,89.94
2017-05-05T04:22:25.687Z,90.12
2017-05-05T04:23:06.260Z,90.6
2017-05-05T04:23:46.881Z,90.31
2017-05-05T04:24:27.430Z,90.5
2017-05-05T04:25:08.052Z,90.03
2017-05-05T04:25:48.626Z,89.94
2017-05-05T04:26:29.221Z,89.84
2017-05-05T04:27:09.792Z,90.12
2017-05-05T04:27:50.392Z,90.12
2017-05-05T04:28:30.951Z,90.12
2017-05-05T04:29:11.543Z,90.12
2017-05-05T04:29:52.149Z,90.41
2017-05-05T04:30:32.710Z,89.94
2017-05-05T04:31:13.323Z,90.12
2017-05-05T04:31:53.896Z,90.12
2017-05-05T04:32:34.480Z,90.03
2017-05-05T04:33:15.100Z,89.94
2017-05-05T04:33:55.679Z,90.12
2017-05-05T04:34:36.313Z,89.94
2017-05-05T04:35:16.942Z,90.22
2017-05-05T04:35:57.513Z,90.41
2017-05-05T04:36:38.103Z,89.94
2017-05-05T04:37:18.693Z,89.36
2017-05-05T04:37:59.263Z,89.46
2017-05-05T04:38:39.823Z,89.46
2017-05-05T04:39:20.442Z,89.84
2017-05-05T04:40:01.003Z,89.94
2017-05-05T04:40:41.575Z,90.12
2017-05-05T04:41:22.236Z,90.12
2017-05-05T04:42:02.820Z,89.94
2017-05-05T04:42:43.442Z,90.03
2017-05-05T04:43:24.073Z,90.03
2017-05-05T04:44:04.653Z,90.03
2017-05-05T04:44:45.236Z,90.22
2017-05-05T04:45:25.847Z,90.31
2017-05-05T04:46:06.403Z,90.22
2017-05-05T04:46:47.024Z,89.84
2017-05-05T04:47:27.620Z,90.03
2017-05-05T04:48:08.196Z,90.7
2017-05-05T04:48:48.766Z,90.7
2017-05-05T04:49:29.354Z,90.5
2017-05-05T04:50:09.925Z,90.41
2017-05-05T04:50:50.523Z,89.75
2017-05-05T04:51:31.103Z,90.03
2017-05-05T04:52:11.679Z,90.7
2017-05-05T04:52:52.276Z,90.41
2017-05-05T04:53:32.856Z,90.5
2017-05-05T04:54:13.447Z,90.6
2017-05-05T04:54:54.044Z,90.03
2017-05-05T04:55:34.649Z,89.84
2017-05-05T04:56:15.232Z,90.03
2017-05-05T04:56:55.836Z,90.03
2017-05-05T04:57:36.424Z,89.84
2017-05-05T04:58:17.007Z,90.03
2017-05-05T04:58:57.577Z,90.03
2017-05-05T04:59:38.171Z,89.94
2017-05-05T05:00:18.831Z,89.94
2017-05-05T05:00:59.420Z,90.22
2017-05-05T05:01:40.014Z,89.94
2017-05-05T05:02:20.623Z,90.12
2017-05-05T05:03:01.250Z,90.03
2017-05-05T05:03:41.816Z,90.22
2017-05-05T05:04:22.393Z,90.7
2017-05-05T05:05:02.993Z,90.79
2017-05-05T05:05:43.601Z,90.31
2017-05-05T05:06:24.198Z,90.7
2017-05-05T05:07:04.779Z,90.6
2017-05-05T05:07:45.353Z,90.03
2017-05-05T05:08:26.020Z,90.79
2017-05-05T05:09:06.696Z,90.41
2017-05-05T05:09:47.326Z,90.6
2017-05-05T05:10:27.919Z,89.84
2017-05-05T05:11:08.537Z,90.03
2017-05-05T05:11:49.159Z,90.12
2017-05-05T05:12:29.874Z,90.12
2017-05-05T05:13:10.476Z,90.12
2017-05-05T05:13:51.054Z,90.12
2017-05-05T05:14:31.626Z,90.12
2017-05-05T05:15:12.223Z,90.22
2017-05-05T05:15:52.804Z,90.22
2017-05-05T05:16:33.381Z,90.12
2017-05-05T05:17:13.981Z,90.31
2017-05-05T05:17:54.568Z,90.03
2017-05-05T05:18:35.185Z,90.03
2017-05-05T05:19:15.778Z,90.12
2017-05-05T05:19:56.425Z,90.41
2017-05-05T05:20:37.014Z,90.41
2017-05-05T05:21:17.587Z,90.03
2017-05-05T05:21:58.210Z,89.84
2017-05-05T05:22:38.783Z,89.65
2017-05-05T05:23:19.371Z,89.55
2017-05-05T05:23:59.937Z,89.46
2017-05-05T05:24:40.540Z,89.84
2017-05-05T05:25:21.131Z,89.65
2017-05-05T05:26:01.764Z,89.36
2017-05-05T05:26:42.348Z,89.46
2017-05-05T05:27:22.938Z,89.36
2017-05-05T05:28:03.548Z,89.55
2017-05-05T05:28:44.131Z,89.36
2017-05-05T05:29:24.734Z,89.65
2017-05-05T05:30:05.357Z,89.55
2017-05-05T05:30:45.926Z,89.46
2017-05-05T05:31:26.552Z,89.46
2017-05-05T05:32:07.225Z,89.84
2017-05-05T05:32:47.923Z,89.65
2017-05-05T05:33:28.513Z,89.65
2017-05-05T05:34:09.129Z,89.46
2017-05-05T05:34:49.743Z,89.46
2017-05-05T05:35:30.324Z,90.03
2017-05-05T05:36:10.918Z,89.84
2017-05-05T05:36:51.505Z,89.84
2017-05-05T05:37:32.144Z,89.94
2017-05-05T05:38:12.718Z,89.55
2017-05-05T05:38:53.448Z,89.84
2017-05-05T05:39:34.124Z,89.94
2017-05-05T05:40:14.702Z,89.36
2017-05-05T05:40:55.313Z,89.75
2017-05-05T05:41:35.904Z,89.46
2017-05-05T05:42:16.525Z,89.17
2017-05-05T05:42:57.161Z,89.36
2017-05-05T05:43:37.807Z,88.89
2017-05-05T05:44:18.432Z,89.26
2017-05-05T05:44:59.006Z,89.17
2017-05-05T05:45:39.595Z,89.55
2017-05-05T05:46:20.182Z,89.5
2017-05-05T05:47:00.890Z,89.4
2017-05-05T05:47:41.524Z,88.64
2017-05-05T05:48:22.216Z,87.64
2017-05-05T05:49:02.851Z,87.07
2017-05-05T05:49:43.444Z,85.73
2017-05-05T05:50:24.070Z,85.21
2017-05-05T05:51:04.655Z,83.96
2017-05-05T05:51:45.235Z,83.48
2017-05-05T05:52:25.913Z,82.63
2017-05-05T05:53:06.501Z,82.29
2017-05-05T05:53:47.119Z,81.43
2017-05-05T05:54:27.667Z,80.85
2017-05-05T05:55:08.297Z,80.66
2017-05-05T05:55:48.932Z,80.13
2017-05-05T05:56:29.570Z,79.65
2017-05-05T05:57:10.200Z,79.27
2017-05-05T05:57:50.843Z,78.79
2017-05-05T05:58:31.434Z,78.31
2017-05-05T05:59:12.040Z,78.31
2017-05-05T05:59:52.667Z,77.65
2017-05-05T06:00:33.258Z,77.36
2017-05-05T06:01:13.846Z,77.5
2017-05-05T06:01:54.442Z,76.64
2017-05-05T06:02:35.054Z,76.64
2017-05-05T06:03:15.731Z,76.54
2017-05-05T06:03:56.351Z,76.06
2017-05-05T06:04:36.941Z,76.16
2017-05-05T06:05:17.548Z,75.87
2017-05-05T06:05:58.171Z,76.16
2017-05-05T06:06:38.756Z,76.16
2017-05-05T06:07:19.494Z,75.59
2017-05-05T06:08:00.064Z,75.78
2017-05-05T06:08:40.647Z,76.25
2017-05-05T06:09:21.291Z,76.06
2017-05-05T06:10:01.955Z,76.25
2017-05-05T06:10:42.513Z,75.39
2017-05-05T06:11:23.140Z,75.78
2017-05-05T06:12:03.781Z,75.49
2017-05-05T06:12:44.374Z,75.39
2017-05-05T06:13:24.965Z,75.1
2017-05-05T06:14:05.539Z,75.01
2017-05-05T06:14:46.199Z,74.66
2017-05-05T06:15:26.795Z,74.76
2017-05-05T06:16:07.391Z,73.96
2017-05-05T06:16:47.973Z,74.48
2017-05-05T06:17:28.763Z,74.19
2017-05-05T06:18:09.362Z,74.19
2017-05-05T06:18:49.967Z,74.28
2017-05-05T06:19:30.562Z,73.71
2017-05-05T06:20:11.208Z,73.71
2017-05-05T06:20:51.776Z,73.43
2017-05-05T06:21:32.362Z,73.43
2017-05-05T06:22:13.054Z,73.52
2017-05-05T06:22:53.580Z,73.43
2017-05-05T06:23:34.236Z,73.04
2017-05-05T06:24:14.885Z,73.33
2017-05-05T06:24:55.488Z,73.14
2017-05-05T06:25:36.089Z,72.66
2017-05-05T06:26:16.686Z,73.04
2017-05-05T06:26:57.287Z,73.33
2017-05-05T06:27:37.911Z,73.86
2017-05-05T06:28:18.487Z,74.05
2017-05-05T06:28:59.080Z,74.34
2017-05-05T06:29:39.693Z,74.73
2017-05-05T06:30:20.250Z,75.35
2017-05-05T06:31:00.826Z,76.21
2017-05-05T06:31:41.436Z,76.5
2017-05-05T06:32:22.080Z,76.69
2017-05-05T06:33:02.715Z,77.26
2017-05-05T06:33:43.298Z,77.65
2017-05-05T06:34:23.863Z,77.89
2017-05-05T06:35:04.449Z,77.99
2017-05-05T06:35:45.033Z,78.18
2017-05-05T06:36:25.648Z,78.94
2017-05-05T06:37:06.218Z,79.14
2017-05-05T06:37:46.923Z,79.23
2017-05-05T06:38:27.536Z,79.52
2017-05-05T06:39:08.101Z,79.48
2017-05-05T06:39:48.683Z,79.77
2017-05-05T06:40:29.260Z,79.86
2017-05-05T06:41:09.857Z,80.24
2017-05-05T06:41:50.435Z,80.43
2017-05-05T06:42:31.050Z,80.53
2017-05-05T06:43:11.638Z,80.43
2017-05-05T06:43:52.228Z,80.81
2017-05-05T06:44:32.809Z,80.91
2017-05-05T06:45:13.418Z,81.29
2017-05-05T06:45:54.030Z,81.48
2017-05-05T06:46:34.596Z,81.96
2017-05-05T06:47:15.218Z,81.86
2017-05-05T06:47:55.870Z,82.63
2017-05-05T06:48:36.487Z,82.43
2017-05-05T06:49:17.064Z,82.53
2017-05-05T06:49:57.676Z,82.68
2017-05-05T06:50:38.288Z,82.68
2017-05-05T06:51:18.883Z,82.78
2017-05-05T06:51:59.509Z,83.29
2017-05-05T06:52:40.097Z,82.63
2017-05-05T06:53:20.701Z,82.78
2017-05-05T06:54:01.327Z,82.82
2017-05-05T06:54:41.951Z,82.78
2017-05-05T06:55:22.535Z,82.78
2017-05-05T06:56:03.186Z,82.87
2017-05-05T06:56:43.794Z,83.16
2017-05-05T06:57:24.468Z,83.16
2017-05-05T06:58:05.035Z,82.78
2017-05-05T06:58:45.651Z,83.16
2017-05-05T06:59:26.261Z,83.83
2017-05-05T07:00:06.860Z,83.64
2017-05-05T07:00:47.443Z,83.73
2017-05-05T07:01:28.066Z,83.64
2017-05-05T07:02:08.652Z,83.54
2017-05-05T07:02:49.259Z,84.01
2017-05-05T07:03:29.870Z,83.92
2017-05-05T07:04:10.482Z,83.54
2017-05-05T07:04:51.065Z,84.2
2017-05-05T07:05:31.634Z,84.3
2017-05-05T07:06:12.219Z,84.2
2017-05-05T07:06:52.801Z,84.3
2017-05-05T07:07:33.449Z,84.2
2017-05-05T07:08:14.044Z,84.2
2017-05-05T07:08:54.645Z,84.2
2017-05-05T07:09:35.223Z,84.2
2017-05-05T07:10:16.065Z,84.11
2017-05-05T07:10:56.631Z,84.2
2017-05-05T07:11:37.210Z,84.2
2017-05-05T07:12:17.875Z,84.2
2017-05-05T07:12:58.490Z,84.2
2017-05-05T07:13:39.075Z,84.11
2017-05-05T07:14:19.668Z,84.11
2017-05-05T07:15:00.244Z,84.3
2017-05-05T07:15:40.835Z,84.69
2017-05-05T07:16:21.492Z,84.3
2017-05-05T07:17:02.109Z,84.78
2017-05-05T07:17:42.713Z,84.78
2017-05-05T07:18:23.356Z,84.78
2017-05-05T07:19:03.974Z,84.3
2017-05-05T07:19:44.560Z,84.3
2017-05-05T07:20:25.192Z,84.3
2017-05-05T07:21:05.746Z,84.88
2017-05-05T07:21:46.362Z,84.49
2017-05-05T07:22:27.000Z,84.78
2017-05-05T07:23:07.612Z,84.3
2017-05-05T07:23:48.211Z,84.78
2017-05-05T07:24:28.797Z,84.78
2017-05-05T07:25:09.387Z,84.49
2017-05-05T07:25:49.948Z,84.78
2017-05-05T07:26:30.548Z,84.69
2017-05-05T07:27:11.156Z,84.78
2017-05-05T07:27:51.775Z,84.78
2017-05-05T07:28:32.392Z,84.4
2017-05-05T07:29:12.975Z,85.06
2017-05-05T07:29:53.568Z,85.54
2017-05-05T07:30:34.138Z,85.35
2017-05-05T07:31:14.723Z,85.16
2017-05-05T07:31:55.305Z,85.16
2017-05-05T07:32:35.906Z,85.06
2017-05-05T07:33:16.487Z,84.78
2017-05-05T07:33:57.084Z,84.78
2017-05-05T07:34:37.659Z,84.97
2017-05-05T07:35:18.246Z,85.25
2017-05-05T07:35:58.844Z,85.35
2017-05-05T07:36:39.450Z,85.06
2017-05-05T07:37:20.050Z,85.35
2017-05-05T07:38:00.627Z,85.35
2017-05-05T07:38:41.238Z,85.54
2017-05-05T07:39:21.843Z,85.25
2017-05-05T07:40:02.413Z,85.06
2017-05-05T07:40:42.984Z,85.45
2017-05-05T07:41:23.572Z,85.25
2017-05-05T07:42:04.138Z,85.25
2017-05-05T07:42:44.719Z,85.54
2017-05-05T07:43:25.314Z,85.45
2017-05-05T07:44:05.899Z,85.45
2017-05-05T07:44:46.538Z,85.35
2017-05-05T07:45:27.156Z,85.25
2017-05-05T07:46:07.763Z,86.11
2017-05-05T07:46:48.351Z,85.83
2017-05-05T07:47:28.948Z,85.93
2017-05-05T07:48:09.538Z,85.93
2017-05-05T07:48:50.157Z,85.93
2017-05-05T07:49:30.789Z,85.83
2017-05-05T07:50:11.363Z,85.83
2017-05-05T07:50:51.977Z,86.02
2017-05-05T07:51:32.562Z,85.25
2017-05-05T07:52:13.174Z,85.93
2017-05-05T07:52:53.819Z,85.93
2017-05-05T07:53:34.383Z,85.93
2017-05-05T07:54:14.964Z,85.83
2017-05-05T07:54:55.541Z,85.83
2017-05-05T07:55:36.154Z,85.83
2017-05-05T07:56:16.720Z,85.93
2017-05-05T07:56:57.311Z,85.93
2017-05-05T07:57:38.207Z,86.02
2017-05-05T07:58:18.955Z,85.83
2017-05-05T07:58:59.565Z,85.83
2017-05-05T07:59:40.142Z,85.93
2017-05-05T08:00:20.742Z,85.64
2017-05-05T08:01:01.319Z,85.73
2017-05-05T08:01:41.981Z,85.73
2017-05-05T08:02:22.609Z,85.73
2017-05-05T08:03:03.211Z,85.64
2017-05-05T08:03:43.804Z,85.73
2017-05-05T08:04:24.426Z,85.93
2017-05-05T08:05:04.999Z,85.73
2017-05-05T08:05:45.580Z,85.83
2017-05-05T08:06:26.159Z,85.64
2017-05-05T08:07:06.741Z,85.83
2017-05-05T08:07:47.318Z,85.73
2017-05-05T08:08:27.947Z,85.64
2017-05-05T08:09:08.534Z,86.11
2017-05-05T08:09:49.139Z,85.83
2017-05-05T08:10:29.718Z,85.93
2017-05-05T08:11:10.295Z,85.93
2017-05-05T08:11:50.885Z,85.73
2017-05-05T08:12:31.481Z,85.73
2017-05-05T08:13:12.101Z,85.83
2017-05-05T08:13:52.716Z,85.73
2017-05-05T08:14:33.289Z,85.64
2017-05-05T08:15:13.879Z,85.73
2017-05-05T08:15:54.456Z,85.73
2017-05-05T08:16:36.690Z,85.83
2017-05-05T08:17:17.308Z,85.83
2017-05-05T08:17:57.951Z,85.93
2017-05-05T08:18:38.513Z,86.02
2017-05-05T08:19:19.101Z,85.93
2017-05-05T08:19:59.682Z,85.83
2017-05-05T08:20:40.312Z,85.73
2017-05-05T08:21:20.914Z,85.54
2017-05-05T08:22:01.579Z,85.93
2017-05-05T08:22:42.176Z,85.83
2017-05-05T08:23:22.748Z,85.83
2017-05-05T08:24:03.345Z,85.83
2017-05-05T08:24:43.930Z,86.11
2017-05-05T08:25:24.528Z,85.25
2017-05-05T08:26:05.126Z,85.35
2017-05-05T08:26:45.721Z,85.54
2017-05-05T08:27:26.336Z,85.25
2017-05-05T08:28:07.028Z,85.25
2017-05-05T08:28:47.650Z,85.35
2017-05-05T08:29:28.229Z,85.45
2017-05-05T08:30:08.823Z,85.45
2017-05-05T08:30:49.386Z,85.54
2017-05-05T08:31:29.981Z,85.35
2017-05-05T08:32:10.610Z,85.06
2017-05-05T08:32:51.270Z,85.16
2017-05-05T08:33:31.816Z,85.16
2017-05-05T08:34:12.413Z,85.16
2017-05-05T08:34:53.021Z,85.25
2017-05-05T08:35:33.659Z,85.25
2017-05-05T08:36:14.222Z,85.45
2017-05-05T08:36:54.791Z,85.73
2017-05-05T08:37:35.421Z,85.64
2017-05-05T08:38:16.004Z,85.45
2017-05-05T08:38:56.601Z,85.35
2017-05-05T08:39:37.177Z,85.45
2017-05-05T08:40:17.761Z,85.73
2017-05-05T08:40:58.348Z,85.25
2017-05-05T08:41:38.961Z,85.25
2017-05-05T08:42:19.553Z,85.35
2017-05-05T08:43:00.129Z,85.06
2017-05-05T08:43:40.732Z,84.78
2017-05-05T08:44:21.300Z,84.88